Flight Track Log - Related Links

Times and Time Zones

All times are in EDT time to prevent confusion due to time zone crossing. See the CTL13 flight status page for this flight to view local times or setup timezone preferences in your user account.

Time Position Orientation Groundspeed Altitude Reporting Facility
EDT Latitude Longitude Course Direction KTS MPH feet Rate Location/Type
Fri 09:12:28 PM 39.8667 -86.2833 360° North 126 145 1,700  Level Indianapolis TRACON
Fri 09:14:11 PM 39.9119 -86.2889 355° North 119 137 3,400 951 Climbing Indianapolis Center
Fri 09:15:12 PM 39.9456 -86.3164 328° Northwest 118 136 4,300 689 Climbing Indianapolis Center
Fri 09:16:13 PM 39.9747 -86.3386 330° Northwest 120 138 4,800 488 Climbing Indianapolis Center
Fri 09:17:15 PM 40.0069 -86.3625 330° Northwest 126 145 5,300 488 Climbing Indianapolis Center
Fri 09:18:16 PM 40.0400 -86.3889 329° Northwest 133 153 5,800 344 Climbing Indianapolis Center
Fri 09:19:17 PM 40.0742 -86.4158 329° Northwest 139 160 6,000 98 Climbing Indianapolis Center
Fri 09:20:18 PM 40.1100 -86.4433 330° Northwest 144 166 6,000  Level Indianapolis Center
Fri 09:20:58 PM 40.1408 -86.4658 331° Northwest 149 171 6,000  Level Chicago Center
Fri 09:22:00 PM 40.1775 -86.4939 330° Northwest 152 175 6,000  Level Chicago Center
Fri 09:23:02 PM 40.2133 -86.5206 330° Northwest 151 174 6,000 -67 Level Chicago Center
Fri 09:23:29 PM 40.2294 -86.5372 322° Northwest 150 173 5,900  Descending Chicago Center
Fri 09:24:04 PM 40.2481 -86.5483 336° Northwest 149 171 6,000  Climbing Chicago Center
Fri 09:24:30 PM 40.2661 -86.5614 331° Northwest 150 173 5,900 -97 Descending Chicago Center
Fri 09:25:06 PM 40.2847 -86.5736 333° Northwest 149 171 5,900 100 Level Chicago Center
Fri 09:25:30 PM 40.3028 -86.5908 324° Northwest 148 170 6,000 97 Climbing Chicago Center
Fri 09:26:08 PM 40.3183 -86.6047 326° Northwest 148 170 6,000  Level Chicago Center
Fri 09:26:31 PM 40.3350 -86.6200 325° Northwest 146 168 6,000 -98 Level Chicago Center
Fri 09:27:09 PM 40.3536 -86.6336 331° Northwest 150 173 5,900  Descending Chicago Center
Fri 09:27:32 PM 40.3717 -86.6497 326° Northwest 149 171 6,000 97 Climbing Chicago Center
Fri 09:28:11 PM 40.3953 -86.6664 332° Northwest 146 168 6,000  Level Chicago Center
Fri 09:28:32 PM 40.4061 -86.6764 325° Northwest 148 170 6,000  Level Chicago Center
Fri 09:29:13 PM 40.4306 -86.6950 330° Northwest 149 171 6,000  Level Chicago Center
Fri 09:29:33 PM 40.4425 -86.7058 325° Northwest 147 169 6,000  Level Chicago Center
Fri 09:30:14 PM 40.4650 -86.7222 331° Northwest 147 169 6,000  Level Chicago Center
Fri 09:30:33 PM 40.4769 -86.7328 326° Northwest 147 169 6,000  Level Chicago Center
Fri 09:31:16 PM 40.5008 -86.7503 331° Northwest 150 173 6,000  Level Chicago Center
Fri 09:31:34 PM 40.5136 -86.7625 324° Northwest 148 170 6,000  Level Chicago Center
Fri 09:32:29 PM 40.5439 -86.7864 329° Northwest 148 170 6,000  Level Chicago Center
Fri 09:33:19 PM 40.5706 -86.8058 331° Northwest 150 173 6,000  Level Chicago Center
Fri 09:34:21 PM 40.6136 -86.8389 330° Northwest 150 173 6,000  Level Chicago Center
Fri 09:35:23 PM 40.6478 -86.8672 328° Northwest 145 167 6,000  Level Chicago Center
Fri 09:36:24 PM 40.6842 -86.8947 330° Northwest 149 171 6,000  Level Chicago Center
Fri 09:37:26 PM 40.7161 -86.9197 329° Northwest 148 170 6,000  Level Chicago Center
Fri 09:38:28 PM 40.7575 -86.9533 328° Northwest 147 169 6,000 -49 Level Chicago Center
Fri 09:39:29 PM 40.7908 -86.9831 326° Northwest 144 166 5,900 -49 Descending Chicago Center
Fri 09:40:31 PM 40.8253 -87.0117 328° Northwest 147 169 5,900  Level Chicago Center
Fri 09:41:32 PM 40.8600 -87.0386 330° Northwest 145 167 5,900  Level Chicago Center
Fri 09:42:34 PM 40.8944 -87.0675 328° Northwest 147 169 5,900  Level Chicago Center
Fri 09:43:35 PM 40.9272 -87.0964 326° Northwest 143 165 5,900 49 Level Chicago Center
Fri 09:44:37 PM 40.9622 -87.1247 329° Northwest 145 167 6,000  Climbing Chicago Center
Fri 09:45:38 PM 41.0039 -87.1589 328° Northwest 148 170 5,900  Descending Chicago Center
Fri 09:46:40 PM 41.0411 -87.1864 331° Northwest 151 174 6,000 49 Climbing Chicago Center
Fri 09:47:41 PM 41.0775 -87.2139 330° Northwest 151 174 6,000 -49 Level Chicago Center
Fri 09:48:43 PM 41.1125 -87.2442 327° Northwest 152 175 5,900 -49 Descending Chicago Center
Fri 09:49:44 PM 41.1464 -87.2756 325° Northwest 151 174 5,900 -244 Level Chicago Center
Fri 09:50:46 PM 41.1842 -87.3061 329° Northwest 154 177 5,400 -585 Descending Chicago Center
Fri 09:51:47 PM 41.2231 -87.3392 327° Northwest 160 184 4,700 -634 Descending Chicago Center
Fri 09:52:49 PM 41.2708 -87.3769 329° Northwest 164 189 4,100 -390 Descending Chicago Center
Fri 09:53:50 PM 41.3092 -87.4069 330° Northwest 164 189 3,900 -49 Descending Chicago Center
Fri 09:54:52 PM 41.3436 -87.4347 329° Northwest 157 181 4,000  Climbing Chicago Center
Fri 09:55:53 PM 41.3817 -87.4550 338° Northwest 151 174 3,900 -49 Descending Chicago Center
Fri 09:56:55 PM 41.4183 -87.4769 336° Northwest 148 170 3,900  Level Chicago Center
Fri 09:57:56 PM 41.4586 -87.4908 346° North 148 170 3,900  Level Chicago Center
Fri 09:58:57 PM 41.5053 -87.5044 348° North 147 169 3,900  Level Chicago Center
Fri 09:59:59 PM 41.5458 -87.5167 347° North 147 169 3,900  Level Chicago Center
Fri 10:01:00 PM 41.5861 -87.5308 345° North 149 171 3,900  Level Chicago Center
Fri 10:02:02 PM 41.6253 -87.5425 347° North 148 170 3,900  Level Chicago Center
Fri 10:03:03 PM 41.6581 -87.5769 322° Northwest 154 177 3,900 -390 Level Chicago Center
Fri 10:04:05 PM 41.6889 -87.6175 316° Northwest 155 178 3,100 -823 Descending Chicago Center
Fri 10:05:07 PM 41.7333 -87.6667 320° Northwest 154 177 2,200 -787 Descending Chicago TRACON
Fri 10:06:07 PM 41.7500 -87.7167 294° West 152 175 1,500 -700 Descending Chicago TRACON
Fri 10:09:00 PM 41.7833 -87.7500 334° Northwest  Level FlightAware Approximate

Login

Don't have an account? Register now (free) for customized features, flight alerts, and more!